Time;durP1;ratioP1;P1;durP2;ratioP2;P2;SDS_P1;SDS_P2;PMS_P1;PMS_P2;Temp;Humidity;BMP_temperature;BMP_pressure;BME280_temperature;BME280_humidity;BME280_pressure;Samples;Min_cycle;Max_cycle;Signal;HPM_P1;HPM_P2
2024/03/07 00:02:20;;;;;;;10.38;3.60;;;;;;;-140.81;100.00;62400.31;5037697;28;20136;-49
2024/03/07 00:04:46;;;;;;;9.75;3.40;;;;;;;-140.81;100.00;62400.31;5042172;28;20044;-55
2024/03/07 00:07:12;;;;;;;15.50;3.95;;;;;;;-140.81;100.00;62400.31;5039804;28;20037;-51
2024/03/07 00:09:38;;;;;;;13.68;3.50;;;;;;;-140.81;100.00;62400.31;5011819;28;20115;-54
2024/03/07 00:12:07;;;;;;;8.57;2.90;;;;;;;-140.81;100.00;62400.31;5028052;28;20048;-54
2024/03/07 00:14:35;;;;;;;13.98;3.38;;;;;;;-140.81;100.00;62400.31;5026670;28;20524;-51
2024/03/07 00:17:02;;;;;;;14.55;3.40;;;;;;;-140.81;100.00;62400.31;5010903;28;20048;-56
2024/03/07 00:19:29;;;;;;;10.05;3.17;;;;;;;-140.81;100.00;62400.31;5048645;28;20130;-53
2024/03/07 00:21:56;;;;;;;12.70;3.70;;;;;;;-140.81;100.00;62400.31;5047109;28;20045;-57
2024/03/07 00:24:27;;;;;;;13.10;3.38;;;;;;;-140.81;100.00;62400.31;5011145;28;20132;-53
2024/03/07 00:26:53;;;;;;;13.57;3.45;;;;;;;-140.81;100.00;62400.31;5027485;28;20049;-51
2024/03/07 00:29:19;;;;;;;10.75;3.25;;;;;;;-140.81;100.00;62400.31;5038977;28;20082;-52
2024/03/07 00:31:46;;;;;;;8.05;3.63;;;;;;;-140.81;100.00;62400.31;5046706;28;20044;-54
2024/03/07 00:34:19;;;;;;;9.10;3.03;;;;;;;-140.81;100.00;62400.31;5014668;28;20455;-55
2024/03/07 00:36:46;;;;;;;10.02;3.50;;;;;;;-140.81;100.00;62400.31;5043130;28;20044;-53
2024/03/07 00:39:12;;;;;;;11.45;3.10;;;;;;;-140.81;100.00;62400.31;5029313;28;20523;-55
2024/03/07 00:41:39;;;;;;;10.48;3.40;;;;;;;-140.81;100.00;62400.31;5018436;28;20124;-50
2024/03/07 00:44:06;;;;;;;11.05;3.97;;;;;;;-140.81;100.00;62400.31;5046444;28;20081;-53
2024/03/07 00:46:32;;;;;;;10.18;3.70;;;;;;;-140.81;100.00;62400.31;5028481;28;20040;-51
2024/03/07 00:48:58;;;;;;;12.60;4.43;;;;;;;-140.81;100.00;62400.31;5044003;28;20047;-55
2024/03/07 00:51:24;;;;;;;11.45;3.55;;;;;;;-140.81;100.00;62400.31;5030055;28;20045;-55
2024/03/07 00:53:50;;;;;;;15.13;3.05;;;;;;;-140.81;100.00;62400.31;5047411;28;20416;-55
2024/03/07 00:56:16;;;;;;;12.48;3.55;;;;;;;-140.81;100.00;62400.31;5029740;28;20044;-54
2024/03/07 00:58:42;;;;;;;13.23;3.72;;;;;;;-140.81;100.00;62400.31;5040351;28;20067;-55
2024/03/07 01:01:08;;;;;;;16.17;4.07;;;;;;;-140.81;100.00;62400.31;5026938;28;20482;-52
2024/03/07 01:03:34;;;;;;;21.30;3.97;;;;;;;-140.81;100.00;62400.31;5054458;28;20638;-55
2024/03/07 01:06:00;;;;;;;15.10;3.42;;;;;;;-140.81;100.00;62400.31;5045952;28;20072;-53
2024/03/07 01:08:27;;;;;;;10.30;3.40;;;;;;;-140.81;100.00;62400.31;5021476;28;20485;-48
2024/03/07 01:10:53;;;;;;;12.48;3.38;;;;;;;-140.81;100.00;62400.31;5008754;28;20083;-52
2024/03/07 01:13:22;;;;;;;10.05;3.15;;;;;;;-140.81;100.00;62400.31;5037516;28;20048;-56
2024/03/07 01:15:48;;;;;;;14.60;4.13;;;;;;;-140.81;100.00;62400.31;5023590;28;20045;-55
2024/03/07 01:18:15;;;;;;;9.98;3.10;;;;;;;-140.81;100.00;62400.31;5026051;28;20076;-56
2024/03/07 01:20:41;;;;;;;10.82;2.70;;;;;;;-140.81;100.00;62400.31;5044049;28;20049;-53
2024/03/07 01:23:07;;;;;;;9.20;3.10;;;;;;;-140.81;100.00;62400.31;5038769;28;20583;-54
2024/03/07 01:25:34;;;;;;;13.55;3.22;;;;;;;-140.81;100.00;62400.31;5029143;28;20041;-53
2024/03/07 01:28:00;;;;;;;9.88;4.32;;;;;;;-140.81;100.00;62400.31;5028337;28;20721;-52
2024/03/07 01:30:28;;;;;;;10.70;2.60;;;;;;;-140.81;100.00;62400.31;5035914;28;20040;-53
2024/03/07 01:32:54;;;;;;;12.60;3.17;;;;;;;-140.81;100.00;62400.31;5031274;28;20045;-50
2024/03/07 01:35:21;;;;;;;10.25;3.13;;;;;;;-140.81;100.00;62400.31;5045599;28;20043;-54
2024/03/07 01:37:47;;;;;;;10.75;3.50;;;;;;;-140.81;100.00;62400.31;5013472;28;20123;-51
2024/03/07 01:40:14;;;;;;;11.18;3.95;;;;;;;-140.81;100.00;62400.31;5037266;28;20154;-56
2024/03/07 01:42:41;;;;;;;17.70;4.22;;;;;;;-140.81;100.00;62400.31;5046882;28;20753;-56
2024/03/07 01:45:09;;;;;;;24.55;2.90;;;;;;;-140.81;100.00;62400.31;5045120;28;20045;-53
2024/03/07 01:47:38;;;;;;;19.70;4.17;;;;;;;-140.81;100.00;62400.31;5046881;28;20064;-55
2024/03/07 01:50:05;;;;;;;6.28;2.38;;;;;;;-140.81;100.00;62400.31;5039731;28;20392;-50
2024/03/07 01:52:31;;;;;;;4.70;2.50;;;;;;;-140.81;100.00;62400.31;5045466;28;20508;-52
2024/03/07 01:54:57;;;;;;;6.35;3.00;;;;;;;-140.81;100.00;62400.31;5040707;28;20036;-53
2024/03/07 01:57:23;;;;;;;9.13;3.75;;;;;;;-140.81;100.00;62400.31;5044903;28;20859;-52
2024/03/07 01:59:54;;;;;;;7.68;2.95;;;;;;;-140.81;100.00;62400.31;5041103;28;20079;-50
2024/03/07 02:02:22;;;;;;;11.10;2.67;;;;;;;-140.81;100.00;62400.31;4990367;28;20030;-52
2024/03/07 02:04:48;;;;;;;7.38;2.33;;;;;;;-140.81;100.00;62400.31;5025188;28;20558;-52
2024/03/07 02:07:14;;;;;;;14.50;2.35;;;;;;;-140.81;100.00;62400.31;5050627;28;20050;-53
2024/03/07 02:09:41;;;;;;;4.50;1.67;;;;;;;-140.81;100.00;62400.31;5026389;28;20592;-56
2024/03/07 02:12:08;;;;;;;4.07;1.95;;;;;;;-140.81;100.00;62400.31;5025092;28;20497;-53
2024/03/07 02:14:34;;;;;;;4.05;1.88;;;;;;;-140.81;100.00;62400.31;5044666;28;20512;-58
2024/03/07 02:17:00;;;;;;;10.50;3.92;;;;;;;-140.81;100.00;62400.31;5034043;28;20074;-51
2024/03/07 02:19:26;;;;;;;4.28;2.22;;;;;;;-140.81;100.00;62400.31;5032136;28;20048;-51
2024/03/07 02:21:52;;;;;;;1.83;1.35;;;;;;;-140.81;100.00;62400.31;5043017;28;20420;-53
2024/03/07 02:24:18;;;;;;;15.65;3.28;;;;;;;-140.81;100.00;62400.31;5039650;28;20497;-54
2024/03/07 02:26:44;;;;;;;3.35;1.77;;;;;;;-140.81;100.00;62400.31;5024544;28;20042;-55
2024/03/07 02:29:11;;;;;;;7.03;2.47;;;;;;;-140.81;100.00;62400.31;5028609;28;20042;-51
2024/03/07 02:31:37;;;;;;;8.57;2.28;;;;;;;-140.81;100.00;62400.31;5043316;28;20233;-51
2024/03/07 02:34:03;;;;;;;7.80;2.80;;;;;;;-140.81;100.00;62400.31;5043310;28;20036;-57
2024/03/07 02:36:30;;;;;;;5.70;2.83;;;;;;;-140.81;100.00;62400.31;5026838;28;20136;-53
2024/03/07 02:38:56;;;;;;;4.95;1.45;;;;;;;-140.81;100.00;62400.31;5041037;28;20052;-53
2024/03/07 02:41:23;;;;;;;10.23;2.60;;;;;;;-140.81;100.00;62400.31;5038330;28;20056;-56
2024/03/07 02:43:51;;;;;;;5.70;2.25;;;;;;;-140.81;100.00;62400.31;5040481;28;20098;-52
2024/03/07 02:46:17;;;;;;;5.95;1.40;;;;;;;-140.81;100.00;62400.31;5028037;28;20046;-52
2024/03/07 02:48:43;;;;;;;8.15;2.00;;;;;;;-140.81;100.00;62400.31;5045416;28;20087;-53
2024/03/07 02:51:11;;;;;;;5.75;1.92;;;;;;;-140.81;100.00;62400.31;5040991;28;20290;-57
2024/03/07 02:53:38;;;;;;;3.60;1.60;;;;;;;-140.81;100.00;62400.31;5021140;28;20034;-57
2024/03/07 02:56:09;;;;;;;5.05;1.40;;;;;;;-140.81;100.00;62400.31;5041114;28;20037;-49
2024/03/07 02:58:35;;;;;;;9.13;2.05;;;;;;;-140.81;100.00;62400.31;5027920;28;20144;-54
2024/03/07 03:01:02;;;;;;;5.70;1.70;;;;;;;-140.81;100.00;62400.31;5020005;28;20045;-49
2024/03/07 03:03:32;;;;;;;3.88;1.80;;;;;;;-140.81;100.00;62400.31;5027913;28;20041;-52
2024/03/07 03:05:59;;;;;;;4.82;1.73;;;;;;;-140.81;100.00;62400.31;5043603;28;20603;-52
2024/03/07 03:08:25;;;;;;;5.18;2.00;;;;;;;-140.81;100.00;62400.31;5045108;28;20036;-56
2024/03/07 03:10:51;;;;;;;4.63;1.60;;;;;;;-140.81;100.00;62400.31;5039824;28;20504;-52
2024/03/07 03:13:17;;;;;;;6.10;2.45;;;;;;;-140.81;100.00;62400.31;5041705;28;20049;-55
2024/03/07 03:15:43;;;;;;;4.03;1.77;;;;;;;-140.81;100.00;62400.31;5033175;28;20626;-50
2024/03/07 03:18:09;;;;;;;1.95;1.10;;;;;;;-140.81;100.00;62400.31;5024865;28;20524;-53
2024/03/07 03:20:38;;;;;;;7.22;1.88;;;;;;;-140.81;100.00;62400.31;5028785;28;20041;-56
2024/03/07 03:23:13;;;;;;;5.15;1.80;;;;;;;-140.81;100.00;62400.31;5044652;28;20041;-55
2024/03/07 03:25:39;;;;;;;3.65;1.30;;;;;;;-140.81;100.00;62400.31;5009678;28;20425;-52
2024/03/07 03:28:12;;;;;;;4.80;2.25;;;;;;;-140.81;100.00;62400.31;5023977;28;20529;-56
2024/03/07 03:30:38;;;;;;;10.43;1.80;;;;;;;-140.81;100.00;62400.31;5024411;28;20049;-52
2024/03/07 03:33:07;;;;;;;3.90;1.70;;;;;;;-140.81;100.00;62400.31;5041388;28;20045;-51
2024/03/07 03:35:34;;;;;;;3.67;1.60;;;;;;;-140.81;100.00;62400.31;5007767;28;20033;-56
2024/03/07 03:38:00;;;;;;;4.40;1.85;;;;;;;-140.81;100.00;62400.31;5008111;28;20102;-54
2024/03/07 03:40:26;;;;;;;3.88;1.90;;;;;;;-140.81;100.00;62400.31;5023773;28;20509;-56
2024/03/07 03:42:52;;;;;;;5.70;2.53;;;;;;;-140.81;100.00;62400.31;5026074;28;20037;-58
2024/03/07 03:45:20;;;;;;;8.90;3.05;;;;;;;-140.81;100.00;62400.31;5008108;28;20041;-55
2024/03/07 03:47:47;;;;;;;9.43;1.85;;;;;;;-140.81;100.00;62400.31;5024501;28;20038;-57
2024/03/07 03:50:14;;;;;;;6.75;2.30;;;;;;;-140.81;100.00;62400.31;5056957;28;20045;-56
2024/03/07 03:52:42;;;;;;;8.02;2.22;;;;;;;-140.81;100.00;62400.31;5026843;28;20041;-52
2024/03/07 03:55:12;;;;;;;9.83;2.13;;;;;;;-140.81;100.00;62400.31;5028078;28;20722;-56
2024/03/07 03:57:40;;;;;;;3.45;1.77;;;;;;;-140.81;100.00;62400.31;5060909;28;20053;-56
2024/03/07 04:00:13;;;;;;;6.47;2.80;;;;;;;-140.81;100.00;62400.31;5008129;28;20769;-52
2024/03/07 04:02:49;;;;;;;21.55;2.60;;;;;;;-140.81;100.00;62400.31;5026573;28;20080;-54
2024/03/07 04:05:17;;;;;;;8.95;2.63;;;;;;;-140.81;100.00;62400.31;5027790;28;20052;-57
2024/03/07 04:07:43;;;;;;;5.82;2.00;;;;;;;-140.81;100.00;62400.31;5045285;28;20068;-55
2024/03/07 04:10:10;;;;;;;9.15;2.85;;;;;;;-140.81;100.00;62400.31;5029108;28;20063;-52
2024/03/07 04:12:39;;;;;;;7.65;3.13;;;;;;;-140.81;100.00;62400.31;4995781;28;20041;-55
2024/03/07 04:15:10;;;;;;;;;;;;;;;-140.81;100.00;62400.31;5029228;28;20041;-57
2024/03/07 04:17:36;;;;;;;10.13;2.38;;;;;;;-140.81;100.00;62400.31;5027700;28;19917;-51
2024/03/07 04:20:07;;;;;;;8.27;2.13;;;;;;;-140.81;100.00;62400.31;5027944;28;20037;-56
2024/03/07 04:22:35;;;;;;;13.15;2.80;;;;;;;-140.81;100.00;62400.31;5010153;28;20037;-54
2024/03/07 04:25:01;;;;;;;5.05;2.10;;;;;;;-140.81;100.00;62400.31;4980570;28;20413;-56
2024/03/07 04:27:30;;;;;;;6.93;1.92;;;;;;;-140.81;100.00;62400.31;5028690;28;20069;-55
2024/03/07 04:29:59;;;;;;;6.43;2.13;;;;;;;-140.81;100.00;62400.31;5027637;28;20505;-52
2024/03/07 04:32:25;;;;;;;6.20;1.90;;;;;;;-140.81;100.00;62400.31;4992139;28;20292;-59
2024/03/07 04:34:51;;;;;;;6.90;2.58;;;;;;;-140.81;100.00;62400.31;5041514;28;20050;-52
2024/03/07 04:37:17;;;;;;;10.90;2.33;;;;;;;-140.81;100.00;62400.31;4997726;28;20033;-53
2024/03/07 04:39:45;;;;;;;3.40;1.35;;;;;;;-140.81;100.00;62400.31;5022149;28;20425;-54
2024/03/07 04:42:13;;;;;;;7.10;2.30;;;;;;;-140.81;100.00;62400.31;5027046;28;20046;-51
2024/03/07 04:44:40;;;;;;;9.65;2.40;;;;;;;-140.81;100.00;62400.31;5027944;28;20069;-49
2024/03/07 04:47:07;;;;;;;5.88;2.72;;;;;;;-140.81;100.00;62400.31;5028673;28;20087;-53
2024/03/07 04:49:33;;;;;;;3.75;1.80;;;;;;;-140.81;100.00;62400.31;5028247;28;20429;-49
2024/03/07 04:52:01;;;;;;;11.13;2.50;;;;;;;-140.81;100.00;62400.31;5010974;28;20091;-52
2024/03/07 04:54:28;;;;;;;4.53;2.03;;;;;;;-140.81;100.00;62400.31;5008636;28;20041;-48
2024/03/07 04:56:55;;;;;;;4.10;2.17;;;;;;;-140.81;100.00;62400.31;5010383;28;20045;-49
2024/03/07 04:59:21;;;;;;;6.68;2.08;;;;;;;-140.81;100.00;62400.31;5037886;28;20037;-55
2024/03/07 05:01:49;;;;;;;6.70;1.85;;;;;;;-140.81;100.00;62400.31;5010139;28;20045;-53
2024/03/07 05:04:16;;;;;;;8.93;2.05;;;;;;;-140.81;100.00;62400.31;5024037;28;20080;-50
2024/03/07 05:06:43;;;;;;;4.65;1.83;;;;;;;-140.81;100.00;62400.31;4994380;28;20512;-48
2024/03/07 05:09:22;;;;;;;6.80;2.75;;;;;;;-140.81;100.00;62400.31;5024886;28;20102;-52
2024/03/07 05:11:51;;;;;;;9.55;2.92;;;;;;;-140.81;100.00;62400.31;5005918;28;20041;-55
2024/03/07 05:14:18;;;;;;;4.88;2.38;;;;;;;-140.81;100.00;62400.31;5026035;28;20041;-49
2024/03/07 05:16:44;;;;;;;8.13;2.75;;;;;;;-140.81;100.00;62400.31;5026033;28;20037;-51
2024/03/07 05:19:10;;;;;;;7.63;1.95;;;;;;;-140.81;100.00;62400.31;5027159;28;20131;-53
2024/03/07 05:21:40;;;;;;;8.60;2.17;;;;;;;-140.81;100.00;62400.31;5026979;28;20458;-51
2024/03/07 05:24:07;;;;;;;5.38;1.92;;;;;;;-140.81;100.00;62400.31;5024351;28;20037;-54
2024/03/07 05:26:39;;;;;;;6.75;2.40;;;;;;;-140.81;100.00;62400.31;5024602;28;20058;-51
2024/03/07 05:29:07;;;;;;;6.72;2.60;;;;;;;-140.81;100.00;62400.31;5027103;28;20463;-48
2024/03/07 05:31:38;;;;;;;4.82;2.03;;;;;;;-140.81;100.00;62400.31;5008924;28;20064;-53
2024/03/07 05:34:08;;;;;;;3.80;1.75;;;;;;;-140.81;100.00;62400.31;5026265;28;20100;-49
2024/03/07 05:36:34;;;;;;;5.80;1.55;;;;;;;-140.81;100.00;62400.31;5008063;28;20088;-55
2024/03/07 05:39:02;;;;;;;9.77;2.33;;;;;;;-140.81;100.00;62400.31;5026465;28;20168;-54
2024/03/07 05:41:29;;;;;;;6.57;2.30;;;;;;;-140.81;100.00;62400.31;5024225;28;20045;-54
2024/03/07 05:43:55;;;;;;;10.35;2.67;;;;;;;-140.81;100.00;62400.31;5024579;28;20048;-55
2024/03/07 05:46:23;;;;;;;3.60;2.08;;;;;;;-140.81;100.00;62400.31;5025776;28;20039;-49
2024/03/07 05:48:52;;;;;;;7.20;2.30;;;;;;;-140.81;100.00;62400.31;5025999;28;20041;-54
2024/03/07 05:51:18;;;;;;;10.05;2.67;;;;;;;-140.81;100.00;62400.31;5026605;28;20831;-54
2024/03/07 05:53:44;;;;;;;6.70;2.35;;;;;;;-140.81;100.00;62400.31;5009186;28;20049;-58
2024/03/07 05:56:12;;;;;;;9.40;2.58;;;;;;;-140.81;100.00;62400.31;5026820;28;20053;-54
2024/03/07 05:58:38;;;;;;;9.93;2.00;;;;;;;-140.81;100.00;62400.31;5027769;28;20087;-52
2024/03/07 06:01:08;;;;;;;7.77;2.83;;;;;;;-140.81;100.00;62400.31;5008141;28;20433;-52
2024/03/07 06:03:37;;;;;;;5.57;2.50;;;;;;;-140.81;100.00;62400.31;5026033;28;20041;-56
2024/03/07 06:06:04;;;;;;;6.10;1.90;;;;;;;-140.81;100.00;62400.31;5010277;28;20472;-52
2024/03/07 06:08:31;;;;;;;9.30;3.17;;;;;;;-140.81;100.00;62400.31;5026172;28;20049;-52
2024/03/07 06:10:57;;;;;;;4.95;2.42;;;;;;;-140.81;100.00;62400.31;5027438;28;20045;-52
2024/03/07 06:13:23;;;;;;;8.77;3.40;;;;;;;-140.81;100.00;62400.31;5026620;28;20044;-54
2024/03/07 06:15:50;;;;;;;7.95;3.20;;;;;;;-140.81;100.00;62400.31;5004594;28;20135;-51
2024/03/07 06:18:15;;;;;;;7.20;2.72;;;;;;;-140.81;100.00;62400.31;5006473;28;20125;-53
2024/03/07 06:20:42;;;;;;;10.18;3.00;;;;;;;-140.81;100.00;62400.31;5007663;28;20049;-51
2024/03/07 06:23:11;;;;;;;9.13;3.95;;;;;;;-140.81;100.00;62400.31;5018939;28;20454;-51
2024/03/07 06:25:47;;;;;;;10.32;3.20;;;;;;;-140.81;100.00;62400.31;5026713;28;20041;-56
2024/03/07 06:28:13;;;;;;;14.43;3.92;;;;;;;-140.81;100.00;62400.31;5026286;28;20037;-52
2024/03/07 06:30:42;;;;;;;10.75;3.10;;;;;;;-140.81;100.00;62400.31;5026010;28;20464;-56
2024/03/07 06:33:10;;;;;;;10.23;3.92;;;;;;;-140.81;100.00;62400.31;5025714;28;20144;-54
2024/03/07 06:35:36;;;;;;;9.32;3.67;;;;;;;-140.81;100.00;62400.31;5006342;28;20064;-54
2024/03/07 06:38:06;;;;;;;8.20;3.63;;;;;;;-140.81;100.00;62400.31;5058378;28;20044;-51
2024/03/07 06:40:32;;;;;;;14.77;4.03;;;;;;;-140.81;100.00;62400.31;5027216;28;20140;-52
2024/03/07 06:42:59;;;;;;;11.20;3.80;;;;;;;-140.81;100.00;62400.31;5004091;28;20076;-51
2024/03/07 06:45:26;;;;;;;6.93;3.42;;;;;;;-140.81;100.00;62400.31;5007032;28;20038;-48
2024/03/07 06:47:55;;;;;;;8.77;3.75;;;;;;;-140.81;100.00;62400.31;4991508;28;20521;-49
2024/03/07 06:50:21;;;;;;;7.45;3.63;;;;;;;-140.81;100.00;62400.31;5025161;28;20053;-50
2024/03/07 06:52:47;;;;;;;13.88;4.45;;;;;;;-140.81;100.00;62400.31;5024511;28;20124;-54
2024/03/07 06:55:18;;;;;;;12.07;3.80;;;;;;;-140.81;100.00;62400.31;5026561;28;20584;-51
2024/03/07 06:57:45;;;;;;;10.55;4.15;;;;;;;-140.81;100.00;62400.31;5040510;28;20221;-55
2024/03/07 07:00:12;;;;;;;9.02;3.60;;;;;;;-140.81;100.00;62400.31;5025238;28;20053;-51
2024/03/07 07:02:39;;;;;;;8.02;3.55;;;;;;;-140.81;100.00;62400.31;5008150;28;20049;-52
2024/03/07 07:05:10;;;;;;;6.20;3.08;;;;;;;-140.81;100.00;62400.31;5008140;28;20037;-52
2024/03/07 07:07:43;;;;;;;11.70;5.80;;;;;;;-140.81;100.00;62400.31;5007644;28;20048;-56
2024/03/07 07:10:15;;;;;;;14.07;3.83;;;;;;;-140.81;100.00;62400.31;5026013;28;20037;-54
2024/03/07 07:12:43;;;;;;;15.35;4.38;;;;;;;-140.81;100.00;62400.31;5023824;28;20061;-52
2024/03/07 07:15:10;;;;;;;17.30;3.90;;;;;;;-140.81;100.00;62400.31;5024789;28;20111;-51
2024/03/07 07:17:36;;;;;;;11.05;4.43;;;;;;;-140.81;100.00;62400.31;5007506;28;20041;-52
2024/03/07 07:20:10;;;;;;;11.80;4.10;;;;;;;-140.81;100.00;62400.31;5057539;28;20041;-53
2024/03/07 07:22:39;;;;;;;10.40;4.10;;;;;;;-140.81;100.00;62400.31;5025360;28;20092;-51
2024/03/07 07:25:12;;;;;;;10.60;3.92;;;;;;;-140.81;100.00;62400.31;5006352;28;20425;-55
2024/03/07 07:27:44;;;;;;;9.35;4.15;;;;;;;-140.81;100.00;62400.31;5022399;28;20817;-52
2024/03/07 07:30:12;;;;;;;8.90;3.80;;;;;;;-140.81;100.00;62400.31;5022519;28;20044;-55
2024/03/07 07:32:39;;;;;;;8.60;3.30;;;;;;;-140.81;100.00;62400.31;5021827;28;20132;-52
2024/03/07 07:35:12;;;;;;;9.70;3.50;;;;;;;-140.81;100.00;62400.31;5021919;28;20045;-56
2024/03/07 07:37:46;;;;;;;11.20;3.35;;;;;;;-140.81;100.00;62400.31;5022576;28;20045;-54
2024/03/07 07:40:14;;;;;;;10.25;3.75;;;;;;;-140.81;100.00;62400.31;5018203;28;20053;-55
2024/03/07 07:42:47;;;;;;;7.72;3.05;;;;;;;-140.81;100.00;62400.31;5024924;28;20049;-52
2024/03/07 07:45:14;;;;;;;9.82;3.45;;;;;;;-140.81;100.00;62400.31;5025069;28;20060;-51
2024/03/07 07:47:42;;;;;;;10.43;3.80;;;;;;;-140.81;100.00;62400.31;5052721;28;20049;-54
2024/03/07 07:50:19;;;;;;;11.30;3.75;;;;;;;-140.81;100.00;62400.31;5025774;28;20038;-46
2024/03/07 07:53:12;;;;;;;9.38;3.78;;;;;;;-140.81;100.00;62400.31;5016695;28;20096;-47
2024/03/07 07:55:38;;;;;;;10.30;3.28;;;;;;;-140.81;100.00;62400.31;5023281;28;20088;-46
2024/03/07 07:58:04;;;;;;;8.63;3.08;;;;;;;-140.81;100.00;62400.31;5024428;28;20041;-52
2024/03/07 08:00:30;;;;;;;12.32;3.20;;;;;;;-140.81;100.00;62400.31;5005985;28;20424;-46
2024/03/07 08:03:02;;;;;;;6.35;3.10;;;;;;;-140.81;100.00;62400.31;5023688;28;20822;-58
2024/03/07 08:05:30;;;;;;;8.32;2.80;;;;;;;-140.81;100.00;62400.31;5007051;28;20045;-55
2024/03/07 08:07:57;;;;;;;8.23;3.20;;;;;;;-140.81;100.00;62400.31;5023260;28;20037;-56
2024/03/07 08:10:30;;;;;;;7.05;3.25;;;;;;;-140.81;100.00;62400.31;5007188;28;20075;-57
2024/03/07 08:12:57;;;;;;;13.30;3.63;;;;;;;-140.81;100.00;62400.31;5025061;28;20107;-58
2024/03/07 08:15:26;;;;;;;10.80;3.33;;;;;;;-140.81;100.00;62400.31;5023353;28;20052;-52
2024/03/07 08:17:52;;;;;;;8.18;3.30;;;;;;;-140.81;100.00;62400.31;5005507;28;20143;-59
2024/03/07 08:20:22;;;;;;;8.43;3.63;;;;;;;-140.81;100.00;62400.31;5019944;28;20076;-54
2024/03/07 08:22:52;;;;;;;5.07;2.70;;;;;;;-140.81;100.00;62400.31;4971712;28;20069;-56
2024/03/07 08:25:20;;;;;;;11.98;3.17;;;;;;;-140.81;100.00;62400.31;5005685;28;20699;-59
2024/03/07 08:27:49;;;;;;;13.48;3.45;;;;;;;-140.81;100.00;62400.31;5023167;28;20044;-60
2024/03/07 08:30:15;;;;;;;10.77;4.13;;;;;;;-140.81;100.00;62400.31;5023401;28;20072;-61
2024/03/07 08:32:46;;;;;;;8.13;3.70;;;;;;;-140.81;100.00;62400.31;5020678;28;20498;-57
2024/03/07 08:35:13;;;;;;;9.68;3.40;;;;;;;-140.81;100.00;62400.31;5028460;28;20119;-59
2024/03/07 08:37:40;;;;;;;4.75;2.65;;;;;;;-140.81;100.00;62400.31;5006441;28;20041;-56
2024/03/07 08:40:10;;;;;;;7.90;3.58;;;;;;;-140.81;100.00;62400.31;5010134;28;20075;-55
2024/03/07 08:42:37;;;;;;;8.55;3.20;;;;;;;-140.81;100.00;62400.31;5022327;28;20041;-57
2024/03/07 08:45:04;;;;;;;8.55;3.45;;;;;;;-140.81;100.00;62400.31;5026048;28;20055;-60
2024/03/07 08:47:35;;;;;;;7.93;3.57;;;;;;;-140.81;100.00;62400.31;5024567;28;20501;-57
2024/03/07 08:50:06;;;;;;;7.03;2.85;;;;;;;-140.81;100.00;62400.31;5009100;28;20167;-57
2024/03/07 08:52:32;;;;;;;7.60;3.40;;;;;;;-140.81;100.00;62400.31;4989030;28;20041;-59
2024/03/07 08:54:58;;;;;;;9.77;3.13;;;;;;;-140.81;100.00;62400.31;5027521;28;20037;-55
2024/03/07 08:57:24;;;;;;;7.63;3.03;;;;;;;-140.81;100.00;62400.31;5028254;28;20512;-55
2024/03/07 08:59:50;;;;;;;5.55;2.92;;;;;;;-140.81;100.00;62400.31;5027801;28;20073;-54
2024/03/07 09:02:16;;;;;;;9.90;2.88;;;;;;;-140.81;100.00;62400.31;5027106;28;20068;-50
2024/03/07 09:04:41;;;;;;;8.43;2.70;;;;;;;-140.81;100.00;62400.31;5026520;28;20041;-53
2024/03/07 09:07:07;;;;;;;7.90;3.10;;;;;;;-140.81;100.00;62400.31;5027019;28;20048;-53
2024/03/07 09:09:34;;;;;;;7.00;3.08;;;;;;;-140.81;100.00;62400.31;5009937;28;20037;-51
2024/03/07 09:12:05;;;;;;;8.13;2.88;;;;;;;-140.81;100.00;62400.31;5026793;28;20043;-54
2024/03/07 09:14:31;;;;;;;8.15;3.38;;;;;;;-140.81;100.00;62400.31;5008666;28;20136;-51
2024/03/07 09:16:57;;;;;;;7.43;3.28;;;;;;;-140.81;100.00;62400.31;5025897;28;20099;-55
2024/03/07 09:19:27;;;;;;;7.65;2.90;;;;;;;-140.81;100.00;62400.31;5042092;28;20470;-54
2024/03/07 09:21:54;;;;;;;8.77;3.47;;;;;;;-140.81;100.00;62400.31;5042375;28;20045;-53
2024/03/07 09:24:23;;;;;;;5.68;3.03;;;;;;;-140.81;100.00;62400.31;5025618;28;20045;-55
2024/03/07 09:26:50;;;;;;;7.05;2.95;;;;;;;-140.81;100.00;62400.31;5058567;28;20126;-54
2024/03/07 09:29:17;;;;;;;8.43;3.25;;;;;;;-140.81;100.00;62400.31;5009504;28;20121;-52
2024/03/07 09:31:46;;;;;;;9.95;3.80;;;;;;;-140.81;100.00;62400.31;5026333;28;20132;-55
2024/03/07 09:34:13;;;;;;;9.82;3.53;;;;;;;-140.81;100.00;62400.31;5027359;28;20041;-54
2024/03/07 09:36:41;;;;;;;7.75;3.47;;;;;;;-140.81;100.00;62400.31;5027340;28;20057;-50
2024/03/07 09:39:12;;;;;;;7.18;3.10;;;;;;;-140.81;100.00;62400.31;5025886;28;20037;-53
2024/03/07 09:41:41;;;;;;;7.78;3.22;;;;;;;-140.81;100.00;62400.31;5059018;28;20047;-56
2024/03/07 09:44:12;;;;;;;8.13;3.22;;;;;;;-140.81;100.00;62400.31;5052572;28;20041;-56
2024/03/07 09:46:38;;;;;;;11.55;3.13;;;;;;;-140.81;100.00;62400.31;5059933;28;20052;-55
2024/03/07 09:49:05;;;;;;;7.50;3.13;;;;;;;-140.81;100.00;62400.31;5041664;28;20049;-55
2024/03/07 09:51:31;;;;;;;5.47;3.13;;;;;;;-140.81;100.00;62400.31;5026306;28;20048;-51
2024/03/07 09:53:59;;;;;;;6.35;2.90;;;;;;;-140.81;100.00;62400.31;5058907;28;20045;-53
2024/03/07 09:56:28;;;;;;;9.68;3.08;;;;;;;-140.81;100.00;62400.31;4993052;28;20114;-51
2024/03/07 09:58:57;;;;;;;11.18;2.65;;;;;;;-140.81;100.00;62400.31;5027023;28;20045;-55
2024/03/07 10:01:26;;;;;;;6.88;3.15;;;;;;;-140.81;100.00;62400.31;5009643;28;20092;-54
2024/03/07 10:03:59;;;;;;;;;;;;;;;-140.81;100.00;62400.31;5059145;28;20052;-56
2024/03/07 10:06:29;;;;;;;7.22;2.85;;;;;;;-140.81;100.00;62400.31;4989813;28;19922;-57
2024/03/07 10:08:55;;;;;;;7.30;2.65;;;;;;;-140.81;100.00;62400.31;5006116;28;20052;-55
2024/03/07 10:11:24;;;;;;;8.52;3.03;;;;;;;-140.81;100.00;62400.31;5005882;28;20045;-57
2024/03/07 10:13:51;;;;;;;;;;;;;;;-140.81;100.00;62400.31;5006150;28;20042;-57
2024/03/07 10:16:18;;;;;;;6.85;3.22;;;;;;;-140.81;100.00;62400.31;5012678;28;20294;-54
2024/03/07 10:18:45;;;;;;;5.57;3.05;;;;;;;-140.81;100.00;62400.31;5026302;28;20045;-57
2024/03/07 10:21:17;;;;;;;7.00;3.15;;;;;;;-140.81;100.00;62400.31;5026384;28;20049;-55
2024/03/07 10:23:46;;;;;;;8.73;4.07;;;;;;;-140.81;100.00;62400.31;5025841;28;20045;-54
2024/03/07 10:26:23;;;;;;;4.85;3.10;;;;;;;-140.81;100.00;62400.31;4988914;28;20048;-56
2024/03/07 10:28:57;;;;;;;5.20;2.33;;;;;;;-140.81;100.00;62400.31;5008484;28;20048;-56
2024/03/07 10:31:32;;;;;;;6.15;2.80;;;;;;;-140.81;100.00;62400.31;5024401;28;20045;-56
2024/03/07 10:34:02;;;;;;;6.35;2.60;;;;;;;-140.81;100.00;62400.31;5024806;28;20091;-57
2024/03/07 10:36:32;;;;;;;8.35;2.55;;;;;;;-140.81;100.00;62400.31;5024957;28;20046;-54
2024/03/07 10:39:02;;;;;;;7.95;2.95;;;;;;;-140.81;100.00;62400.31;5009265;28;20083;-53
2024/03/07 10:41:30;;;;;;;5.00;2.80;;;;;;;-140.81;100.00;62400.31;5026139;28;20045;-52
2024/03/07 10:44:00;;;;;;;6.97;2.40;;;;;;;-140.81;100.00;62400.31;5025823;28;20041;-55
2024/03/07 10:46:26;;;;;;;5.80;2.78;;;;;;;-140.81;100.00;62400.31;4991894;28;20044;-55
2024/03/07 10:48:56;;;;;;;5.40;2.67;;;;;;;-140.81;100.00;62400.31;4991950;28;20045;-54
2024/03/07 10:51:30;;;;;;;7.82;2.70;;;;;;;-140.81;100.00;62400.31;5005016;28;20037;-52
2024/03/07 10:54:17;;;;;;;3.22;2.03;;;;;;;-140.81;100.00;62400.31;5049993;28;20220;-52
2024/03/07 10:56:57;;;;;;;4.25;1.95;;;;;;;-140.81;100.00;62400.31;5024841;28;20559;-54
2024/03/07 10:59:27;;;;;;;5.70;2.00;;;;;;;-140.81;100.00;62400.31;4988282;28;20056;-52
2024/03/07 11:02:27;;;;;;;5.28;2.13;;;;;;;-140.81;100.00;62400.31;5023707;28;20138;-53
2024/03/07 11:04:53;;;;;;;5.35;2.35;;;;;;;-140.81;100.00;62400.31;5020435;28;20517;-55
2024/03/07 11:07:23;;;;;;;3.53;2.10;;;;;;;-140.81;100.00;62400.31;5025923;28;20045;-55
2024/03/07 11:09:51;;;;;;;4.22;2.33;;;;;;;-140.81;100.00;62400.31;5024666;28;20699;-55
2024/03/07 11:12:22;;;;;;;2.75;2.10;;;;;;;-140.81;100.00;62400.31;5015989;28;20049;-55